Baltimore, Maryland
Traffic Map
Current Weather Conditions
Baltimore, Maryland
Overcast Light Rain
Overcast
19°
Feels Like: 19°
Wind Chill: 19° Ceiling: 1700
Heat Index: 19° Visibility: 6mi
Dew Point: 17° Wind: 15mph
Humidity: 87% Direction: 100° (E)
Pressure: 30.02in Gusts: 0mph
Raw Report DataKBWI 281530Z 10013KT 6SM -RA BR FEW013 BKN017 OVC080 19/17 A3002 RMK AO2 RAB24 P0000 T01890167
Traffic Incident Summary
Active as of:
Severity:
Category:
InformationThere was an issue retrieving the traffic information for this location. Please try a different location or try again shortly.
Advertisements
Track Severe Weather on mobile